Time;durP1;ratioP1;P1;durP2;ratioP2;P2;SDS_P1;SDS_P2;PMS_P1;PMS_P2;Temp;Humidity;BMP_temperature;BMP_pressure;BME280_temperature;BME280_humidity;BME280_pressure;Samples;Min_cycle;Max_cycle;Signal;HPM_P1;HPM_P2
2022/12/05 00:00:04;;;;;;;35.87;22.20;;;;;;;0.73;99.67;99475.94;2235391;80;20905;-85
2022/12/05 00:03:04;;;;;;;32.10;19.80;;;;;;;0.72;99.67;99477.13;2235738;79;20969;-85
2022/12/05 00:06:04;;;;;;;36.73;20.87;;;;;;;0.72;99.77;99471.59;2236383;79;20929;-85
2022/12/05 00:09:05;;;;;;;32.97;20.40;;;;;;;0.76;99.79;99477.81;2235465;78;20973;-85
2022/12/05 00:12:05;;;;;;;34.67;22.37;;;;;;;0.75;99.72;99467.04;2235431;79;20957;-86
2022/12/05 00:15:08;;;;;;;36.97;21.00;;;;;;;0.74;99.68;99462.30;2236111;79;20914;-85
2022/12/05 00:18:06;;;;;;;41.57;21.10;;;;;;;0.77;99.66;99465.45;2236017;79;20902;-85
2022/12/05 00:21:06;;;;;;;39.07;22.23;;;;;;;0.78;99.55;99465.94;2235586;79;20886;-85
2022/12/05 00:24:07;;;;;;;33.80;21.27;;;;;;;0.79;99.51;99463.86;2235768;79;20906;-85
2022/12/05 00:27:08;;;;;;;30.97;19.80;;;;;;;0.81;99.44;99467.01;2235314;79;20913;-84
2022/12/05 00:30:08;;;;;;;34.07;20.80;;;;;;;0.81;99.26;99480.25;2235455;79;20953;-85
2022/12/05 00:33:08;;;;;;;33.50;19.53;;;;;;;0.76;99.54;99480.38;2235672;79;20902;-84
2022/12/05 00:36:09;;;;;;;33.97;20.47;;;;;;;0.78;99.39;99478.78;2235326;79;21314;-84
2022/12/05 00:39:09;;;;;;;36.80;21.00;;;;;;;0.80;99.46;99475.91;2235303;79;20894;-85
2022/12/05 00:42:10;;;;;;;29.67;18.93;;;;;;;0.79;99.37;99478.88;2235157;79;20918;-84
2022/12/05 00:45:10;;;;;;;31.80;19.43;;;;;;;0.84;99.44;99474.02;2234954;79;20961;-85
2022/12/05 00:48:10;;;;;;;31.27;19.90;;;;;;;0.89;99.29;99471.35;2235245;79;20924;-85
2022/12/05 00:51:11;;;;;;;36.27;20.03;;;;;;;0.94;99.39;99475.09;2234871;79;20914;-84
2022/12/05 00:54:11;;;;;;;36.03;21.43;;;;;;;0.99;99.05;99476.24;2235222;79;20941;-83
2022/12/05 00:57:12;;;;;;;37.83;21.73;;;;;;;0.98;98.75;99471.02;2235441;79;20902;-84
2022/12/05 01:00:12;;;;;;;29.53;19.10;;;;;;;0.93;98.57;99453.63;2235352;79;21293;-83
2022/12/05 01:03:13;;;;;;;30.87;19.00;;;;;;;0.92;98.70;99456.11;2235264;80;20998;-84
2022/12/05 01:06:13;;;;;;;30.00;19.77;;;;;;;0.90;98.70;99450.88;2235575;79;20876;-84
2022/12/05 01:09:13;;;;;;;40.30;19.87;;;;;;;0.88;98.76;99449.91;2237558;78;21294;-83
2022/12/05 01:12:14;;;;;;;35.27;20.37;;;;;;;0.93;98.93;99446.32;2280380;78;20887;-83
2022/12/05 01:15:14;;;;;;;28.03;19.03;;;;;;;0.91;98.65;99456.91;2280247;78;20945;-83
2022/12/05 01:18:14;;;;;;;33.77;19.93;;;;;;;0.90;98.90;99451.28;2280722;78;20930;-85
2022/12/05 01:21:15;;;;;;;33.83;20.37;;;;;;;0.88;98.87;99451.19;2280269;78;21239;-84
2022/12/05 01:24:15;;;;;;;27.90;18.77;;;;;;;0.83;98.93;99446.54;2280429;78;20937;-83
2022/12/05 01:27:16;;;;;;;38.00;21.20;;;;;;;0.80;99.04;99433.11;2279872;78;20978;-84
2022/12/05 01:30:16;;;;;;;37.63;19.93;;;;;;;0.80;99.41;99441.22;2263218;78;20930;-84
2022/12/05 01:33:17;;;;;;;34.13;19.77;;;;;;;0.79;99.34;99434.30;2277350;78;20891;-84
2022/12/05 01:36:17;;;;;;;31.33;19.93;;;;;;;0.80;99.28;99430.94;2279330;78;20946;-84
2022/12/05 01:39:17;;;;;;;30.77;19.10;;;;;;;0.83;99.31;99428.55;2280840;78;21291;-85
2022/12/05 01:42:18;;;;;;;33.57;20.03;;;;;;;0.85;99.16;99430.81;2280688;78;20931;-85
2022/12/05 01:45:18;;;;;;;33.43;20.40;;;;;;;0.83;99.24;99419.16;2280879;78;20894;-85
2022/12/05 01:48:19;;;;;;;28.60;18.00;;;;;;;0.81;99.17;99423.72;2281066;78;20899;-84
2022/12/05 01:51:19;;;;;;;39.17;20.70;;;;;;;0.81;99.32;99422.03;2280956;78;20906;-85
2022/12/05 01:54:19;;;;;;;36.40;20.30;;;;;;;0.84;99.43;99425.19;2280653;78;20927;-85
2022/12/05 01:57:20;;;;;;;36.20;20.27;;;;;;;0.74;98.99;99418.61;2280991;78;20902;-85
2022/12/05 02:00:20;;;;;;;30.93;18.77;;;;;;;0.74;98.99;99418.61;2280778;78;20958;-85
2022/12/05 02:03:21;;;;;;;32.03;20.30;;;;;;;0.78;99.54;99423.53;2280981;78;20964;-84
2022/12/05 02:06:21;;;;;;;33.97;20.83;;;;;;;0.79;99.57;99426.59;2281164;78;20934;-84
2022/12/05 02:09:22;;;;;;;34.90;20.33;;;;;;;0.77;99.54;99425.62;2281940;78;20875;-84
2022/12/05 02:12:22;;;;;;;38.10;19.67;;;;;;;0.77;99.44;99421.77;2291390;78;20917;-82
2022/12/05 02:15:22;;;;;;;27.93;18.33;;;;;;;0.78;99.48;99428.67;2291465;78;20906;-84
2022/12/05 02:18:23;;;;;;;31.03;19.63;;;;;;;0.79;99.60;99426.20;2291299;78;21305;-82
2022/12/05 02:21:23;;;;;;;33.73;19.13;;;;;;;0.79;99.60;99426.20;2290993;78;20895;-85
2022/12/05 02:24:24;;;;;;;34.23;19.40;;;;;;;0.83;99.61;99419.55;2277425;78;20915;-85
2022/12/05 02:27:24;;;;;;;32.33;19.53;;;;;;;0.78;99.62;99411.97;2276764;78;21334;-83
2022/12/05 02:30:24;;;;;;;29.67;18.70;;;;;;;0.77;99.74;99412.77;2276609;78;21015;-84
2022/12/05 02:33:25;;;;;;;34.43;19.23;;;;;;;0.77;99.75;99405.06;2276845;78;20906;-84
2022/12/05 02:36:25;;;;;;;38.00;22.97;;;;;;;0.71;100.00;99405.58;2276815;78;21279;-84
2022/12/05 02:39:26;;;;;;;34.40;20.83;;;;;;;0.69;100.00;99399.47;2276618;78;20879;-85
2022/12/05 02:42:26;;;;;;;33.93;20.43;;;;;;;0.68;100.00;99392.95;2276776;78;20879;-84
2022/12/05 02:45:26;;;;;;;35.10;18.20;;;;;;;0.64;100.00;99390.60;2276396;78;20946;-84
2022/12/05 02:48:28;;;;;;;32.67;19.87;;;;;;;0.62;100.00;99392.19;2276536;78;20915;-85
2022/12/05 02:51:28;;;;;;;31.33;18.60;;;;;;;0.62;100.00;99395.65;2276821;78;20934;-84
2022/12/05 02:54:28;;;;;;;32.53;19.57;;;;;;;0.66;100.00;99393.27;2276690;78;20902;-83
2022/12/05 02:57:29;;;;;;;37.33;19.53;;;;;;;0.66;100.00;99388.12;2276540;78;20911;-83
2022/12/05 03:00:29;;;;;;;32.93;19.73;;;;;;;0.68;100.00;99383.96;2276747;78;20954;-86
2022/12/05 03:03:30;;;;;;;32.87;19.53;;;;;;;0.72;100.00;99392.34;2276587;78;20958;-84
2022/12/05 03:06:30;;;;;;;38.07;20.57;;;;;;;0.71;100.00;99385.42;2276949;78;20934;-86
2022/12/05 03:09:31;;;;;;;31.30;18.63;;;;;;;0.72;100.00;99388.09;2276723;78;21325;-84
2022/12/05 03:12:31;;;;;;;34.57;18.73;;;;;;;0.70;100.00;99387.51;2280311;78;20926;-82
2022/12/05 03:15:31;;;;;;;37.87;22.10;;;;;;;0.72;100.00;99378.20;2279578;78;20958;-84
2022/12/05 03:18:32;;;;;;;32.67;19.47;;;;;;;0.75;100.00;99378.38;2280391;78;20914;-84
2022/12/05 03:21:32;;;;;;;32.63;19.90;;;;;;;0.75;100.00;99378.38;2280460;78;21065;-85
2022/12/05 03:24:33;;;;;;;36.73;19.43;;;;;;;0.72;100.00;99380.77;2280379;78;20902;-84
2022/12/05 03:27:33;;;;;;;25.43;16.10;;;;;;;0.75;100.00;99374.13;2280483;78;20931;-83
2022/12/05 03:30:33;;;;;;;31.23;18.97;;;;;;;0.77;100.00;99378.96;2280117;78;21009;-83
2022/12/05 03:33:34;;;;;;;32.67;19.63;;;;;;;0.74;100.00;99377.50;2280757;78;20918;-83
2022/12/05 03:36:34;;;;;;;29.80;19.70;;;;;;;0.75;100.00;99375.81;2281004;78;21283;-82
2022/12/05 03:39:35;;;;;;;30.47;19.63;;;;;;;0.76;100.00;99366.91;2280726;78;20938;-84
2022/12/05 03:42:35;;;;;;;31.70;19.13;;;;;;;0.78;100.00;99367.00;2280179;78;20922;-84
2022/12/05 03:45:35;;;;;;;31.30;20.07;;;;;;;0.80;100.00;99366.69;2280589;78;21082;-84
2022/12/05 03:48:36;;;;;;;30.40;19.03;;;;;;;0.79;100.00;99370.94;2280572;78;20942;-85
2022/12/05 03:51:36;;;;;;;30.03;18.97;;;;;;;0.84;100.00;99385.34;2280467;78;20907;-84
2022/12/05 03:54:37;;;;;;;34.23;20.20;;;;;;;0.90;100.00;99389.59;2280445;78;20887;-84
2022/12/05 03:57:42;;;;;;;36.00;20.07;;;;;;;0.95;100.00;99398.06;2280757;78;20977;-83
2022/12/05 04:00:40;;;;;;;30.27;18.97;;;;;;;0.99;100.00;99405.95;2280483;78;21010;-83
2022/12/05 04:03:40;;;;;;;40.87;20.87;;;;;;;1.02;100.00;99417.30;2281028;78;21348;-84
2022/12/05 04:06:40;;;;;;;32.03;19.23;;;;;;;1.04;100.00;99415.70;2281074;78;20894;-84
2022/12/05 04:09:41;;;;;;;29.40;19.37;;;;;;;1.07;100.00;99411.14;2280967;78;20937;-84
2022/12/05 04:12:41;;;;;;;29.40;18.50;;;;;;;1.09;99.98;99413.39;2277909;78;20919;-84
2022/12/05 04:19:00;;;;;;;38.53;19.77;;;;;;;1.08;99.84;99416.37;2276813;78;20926;-82
2022/12/05 04:22:01;;;;;;;35.60;21.27;;;;;;;1.09;100.00;99414.28;2277092;78;20907;-83
2022/12/05 04:28:20;;;;;;;31.70;18.63;;;;;;;1.06;99.98;99402.94;2276917;78;20966;-86
2022/12/05 04:31:20;;;;;;;33.50;19.30;;;;;;;1.10;100.00;99398.45;2277012;78;20935;-84
2022/12/05 04:34:21;;;;;;;35.23;19.50;;;;;;;1.12;100.00;99395.17;2277420;78;20903;-83
2022/12/05 04:37:21;;;;;;;33.90;19.73;;;;;;;1.13;100.00;99387.95;2276331;78;20945;-78
2022/12/05 04:40:21;;;;;;;33.10;20.77;;;;;;;1.19;100.00;99392.55;2276740;78;20918;-82
2022/12/05 04:43:22;;;;;;;30.00;19.93;;;;;;;1.18;99.82;99386.52;2277082;78;20938;-83
2022/12/05 04:46:23;;;;;;;34.87;20.70;;;;;;;1.20;99.73;99394.33;2276841;78;20930;-83
2022/12/05 04:49:23;;;;;;;41.73;19.87;;;;;;;1.24;100.00;99385.59;2276231;78;20950;-84
2022/12/05 04:52:23;;;;;;;34.97;20.57;;;;;;;1.27;99.63;99377.16;2276737;78;21135;-83
2022/12/05 04:55:28;;;;;;;41.90;20.50;;;;;;;1.24;99.69;99362.45;2276243;78;20907;-82
2022/12/05 04:58:27;;;;;;;32.67;20.83;;;;;;;1.22;99.88;99357.61;2274950;78;20966;-83
2022/12/05 05:01:27;;;;;;;38.23;21.83;;;;;;;1.19;99.81;99369.41;2274788;78;20934;-84
2022/12/05 05:04:28;;;;;;;36.93;21.70;;;;;;;1.22;99.90;99374.33;2274339;78;20954;-84
2022/12/05 05:07:28;;;;;;;35.00;20.83;;;;;;;1.20;99.88;99373.36;2274968;78;20946;-85
2022/12/05 05:10:28;;;;;;;33.13;21.33;;;;;;;1.15;99.88;99376.06;2275017;78;20911;-83
2022/12/05 05:13:29;;;;;;;37.73;21.23;;;;;;;1.15;100.00;99370.92;2278769;78;20902;-83
2022/12/05 05:16:29;;;;;;;32.67;19.67;;;;;;;1.20;100.00;99377.21;2278745;78;20914;-82
2022/12/05 05:19:30;;;;;;;32.93;20.67;;;;;;;1.26;100.00;99371.13;2278507;78;20883;-84
2022/12/05 05:22:30;;;;;;;33.53;20.43;;;;;;;1.22;99.90;99366.61;2278064;78;20915;-83
2022/12/05 05:25:30;;;;;;;32.20;19.93;;;;;;;1.20;100.00;99366.92;2278237;78;20918;-83
2022/12/05 05:28:31;;;;;;;33.50;18.23;;;;;;;1.16;100.00;99364.98;2278599;78;22040;-82
2022/12/05 05:31:31;;;;;;;32.40;20.07;;;;;;;1.15;100.00;99379.92;2278846;78;20901;-84
2022/12/05 05:34:32;;;;;;;37.20;21.70;;;;;;;1.16;100.00;99383.37;2278890;78;20930;-83
2022/12/05 05:37:32;;;;;;;35.70;21.33;;;;;;;1.18;100.00;99372.78;2278785;78;20918;-84
2022/12/05 05:40:32;;;;;;;35.97;22.00;;;;;;;1.21;100.00;99378.98;2277973;78;20938;-85
2022/12/05 05:43:33;;;;;;;34.70;20.50;;;;;;;1.22;100.00;99377.30;2278877;78;20950;-83
2022/12/05 05:46:33;;;;;;;38.80;22.07;;;;;;;1.25;100.00;99392.91;2278347;78;21161;-83
2022/12/05 05:49:34;;;;;;;39.60;22.93;;;;;;;1.26;100.00;99391.70;2277965;78;20910;-82
2022/12/05 05:52:34;;;;;;;38.77;21.47;;;;;;;1.25;100.00;99383.50;2278295;78;20918;-83
2022/12/05 05:55:35;;;;;;;37.33;21.63;;;;;;;1.25;100.00;99387.36;2278699;78;20954;-84
2022/12/05 05:58:35;;;;;;;35.80;21.97;;;;;;;1.25;100.00;99380.94;2279023;78;20922;-82
2022/12/05 06:01:36;;;;;;;43.53;22.80;;;;;;;1.27;100.00;99384.88;2279742;78;20978;-83
2022/12/05 06:04:36;;;;;;;38.17;20.27;;;;;;;1.27;100.00;99376.77;2278822;78;20961;-84
2022/12/05 06:07:36;;;;;;;31.80;21.60;;;;;;;1.29;100.00;99374.28;2278098;78;20887;-85
2022/12/05 06:10:37;;;;;;;55.07;23.90;;;;;;;1.25;100.00;99375.79;2278503;78;20958;-84
2022/12/05 06:13:40;;;;;;;43.60;22.53;;;;;;;1.24;100.00;99379.16;2278429;78;20918;-84
2022/12/05 06:16:40;;;;;;;43.07;22.37;;;;;;;1.24;100.00;99379.16;2277576;78;20942;-85
2022/12/05 06:19:41;;;;;;;40.87;22.70;;;;;;;1.23;100.00;99373.53;2278140;78;20910;-84
2022/12/05 06:22:41;;;;;;;35.63;22.80;;;;;;;1.24;100.00;99368.87;2278104;78;20918;-83
2022/12/05 06:25:44;;;;;;;35.77;22.30;;;;;;;1.25;100.00;99374.50;2256865;78;20942;-83
2022/12/05 06:28:44;;;;;;;36.93;22.07;;;;;;;1.26;100.00;99379.25;2278458;78;20871;-83
2022/12/05 06:31:44;;;;;;;36.97;21.70;;;;;;;1.30;100.00;99377.33;2279034;78;20914;-84
2022/12/05 06:34:45;;;;;;;44.23;23.17;;;;;;;1.25;100.00;99384.79;2278674;78;20926;-83
2022/12/05 06:37:45;;;;;;;31.73;19.33;;;;;;;1.19;100.00;99375.84;2278634;78;20891;-83
2022/12/05 06:43:53;;;;;;;37.63;21.57;;;;;;;1.11;100.00;99377.09;2258998;78;20954;-86
2022/12/05 06:46:53;;;;;;;32.98;20.25;;;;;;;1.17;100.00;99369.73;2280285;78;20962;-86
2022/12/05 06:49:53;;;;;;;38.20;22.93;;;;;;;1.18;100.00;99361.21;2279961;78;20867;-84
2022/12/05 06:52:53;;;;;;;45.17;23.33;;;;;;;1.18;100.00;99356.06;2278583;78;20970;-83
2022/12/05 06:55:54;;;;;;;40.63;23.17;;;;;;;1.14;100.00;99355.01;2278859;78;20898;-84
2022/12/05 06:58:55;;;;;;;38.60;23.50;;;;;;;1.13;100.00;99358.38;2278314;78;21076;-83
2022/12/05 07:01:55;;;;;;;46.30;25.83;;;;;;;1.17;100.00;99357.75;2277935;78;21322;-84
2022/12/05 07:04:56;;;;;;;38.60;23.40;;;;;;;1.20;100.00;99355.36;2278556;78;20941;-83
2022/12/05 07:07:56;;;;;;;52.43;24.23;;;;;;;1.20;100.00;99345.47;2279230;78;20926;-83
2022/12/05 07:10:57;;;;;;;40.80;23.53;;;;;;;1.23;100.00;99342.67;2278563;78;21247;-82
2022/12/05 07:13:57;;;;;;;36.07;22.93;;;;;;;1.23;100.00;99341.38;2275705;78;20947;-84
2022/12/05 07:16:58;;;;;;;38.50;23.27;;;;;;;1.30;100.00;99362.30;2275200;78;20895;-83
2022/12/05 07:19:58;;;;;;;37.63;21.70;;;;;;;1.33;100.00;99368.50;2274642;78;20942;-84
2022/12/05 07:22:58;;;;;;;39.30;22.60;;;;;;;1.39;100.00;99379.14;2275929;78;20966;-84
2022/12/05 07:25:59;;;;;;;37.33;22.03;;;;;;;1.45;100.00;99376.02;2275493;78;20925;-80
2022/12/05 07:28:59;;;;;;;37.97;23.80;;;;;;;1.48;100.00;99383.91;2275287;78;20919;-83
2022/12/05 07:32:00;;;;;;;41.73;24.37;;;;;;;1.50;100.00;99382.31;2275384;78;20906;-83
2022/12/05 07:35:00;;;;;;;41.03;23.97;;;;;;;1.49;100.00;99384.39;2273849;78;21310;-82
2022/12/05 07:38:00;;;;;;;41.27;24.83;;;;;;;1.50;100.00;99391.31;2273145;78;20941;-79
2022/12/05 07:41:01;;;;;;;37.27;22.83;;;;;;;1.53;100.00;99390.20;2272753;78;20926;-82
2022/12/05 07:44:01;;;;;;;41.90;24.90;;;;;;;1.58;100.00;99380.64;2273593;78;21477;-83
2022/12/05 07:47:02;;;;;;;38.77;23.30;;;;;;;1.59;100.00;99381.13;2273636;78;20911;-83
2022/12/05 07:50:02;;;;;;;41.90;24.00;;;;;;;1.59;99.92;99375.09;2273818;78;20961;-81
2022/12/05 07:53:02;;;;;;;37.30;22.90;;;;;;;1.64;100.00;99369.80;2274368;78;20919;-83
2022/12/05 07:56:03;;;;;;;38.80;22.90;;;;;;;1.72;99.93;99353.50;2275240;78;20949;-84
2022/12/05 07:59:03;;;;;;;41.37;25.03;;;;;;;1.76;99.78;99357.64;2274227;78;20903;-84
2022/12/05 08:02:04;;;;;;;39.70;23.50;;;;;;;1.81;99.52;99359.18;2274226;78;20910;-83
2022/12/05 08:05:04;;;;;;;37.53;23.13;;;;;;;1.82;99.35;99363.52;2273703;78;20942;-83
2022/12/05 08:08:05;;;;;;;39.63;23.83;;;;;;;1.81;99.07;99363.92;2274493;78;20911;-84
2022/12/05 08:11:05;;;;;;;43.23;25.17;;;;;;;1.85;99.09;99366.27;2274207;78;20899;-82
2022/12/05 08:14:05;;;;;;;52.70;24.30;;;;;;;1.91;99.04;99389.36;2274078;78;21629;-81
2022/12/05 08:17:06;;;;;;;37.73;23.73;;;;;;;2.01;99.07;99364.11;2273672;78;20875;-83
2022/12/05 08:23:10;;;;;;;44.35;23.90;;;;;;;2.09;98.30;99353.81;2139581;82;20916;-84
2022/12/05 08:26:11;;;;;;;43.03;24.63;;;;;;;2.13;98.08;99344.16;2164749;82;21613;-84
2022/12/05 08:29:11;;;;;;;39.83;23.70;;;;;;;2.22;97.86;99344.24;2164071;82;21583;-82
2022/12/05 08:32:15;;;;;;;40.40;25.27;;;;;;;2.26;97.42;99350.44;2164631;82;21309;-84
2022/12/05 08:35:15;;;;;;;36.63;23.03;;;;;;;2.33;97.96;99357.68;2163841;82;20928;-84
2022/12/05 08:38:16;;;;;;;39.83;23.10;;;;;;;2.42;97.22;99358.16;2164374;82;20936;-81
2022/12/05 08:41:16;;;;;;;43.93;24.20;;;;;;;2.47;97.22;99369.59;2164682;82;21031;-83
2022/12/05 08:44:17;;;;;;;41.50;24.60;;;;;;;2.53;96.79;99369.91;2165575;82;21027;-80
2022/12/05 08:47:17;;;;;;;38.87;23.90;;;;;;;2.56;96.54;99370.06;2164396;82;21318;-84
2022/12/05 08:50:17;;;;;;;37.13;23.80;;;;;;;2.65;96.46;99374.84;2164878;82;20935;-85
2022/12/05 08:53:18;;;;;;;36.47;23.67;;;;;;;2.71;96.26;99361.37;2164566;82;20924;-86
2022/12/05 08:56:18;;;;;;;39.03;23.63;;;;;;;2.81;96.12;99368.36;2165264;82;20964;-84
2022/12/05 08:59:19;;;;;;;38.47;23.87;;;;;;;2.85;95.17;99361.66;2164616;82;21404;-84
2022/12/05 09:02:19;;;;;;;34.77;22.50;;;;;;;2.85;95.27;99361.27;2165253;82;21342;-86
2022/12/05 09:05:19;;;;;;;35.17;23.30;;;;;;;2.94;94.82;99347.94;2164529;82;21193;-83
2022/12/05 09:08:20;;;;;;;34.17;22.33;;;;;;;3.00;95.30;99346.95;2163973;82;20932;-84
2022/12/05 09:11:22;;;;;;;29.43;20.33;;;;;;;3.09;95.27;99347.81;2164826;82;20932;-82
2022/12/05 09:14:21;;;;;;;36.13;22.60;;;;;;;3.23;95.09;99345.91;2160937;82;20960;-78
2022/12/05 09:17:21;;;;;;;36.53;22.37;;;;;;;3.36;95.00;99340.52;2160632;82;20945;-82
2022/12/05 09:20:21;;;;;;;36.90;22.57;;;;;;;3.43;93.22;99330.97;2232255;79;21317;-83
2022/12/05 09:23:22;;;;;;;34.33;22.27;;;;;;;3.42;93.26;99327.91;2252536;78;20923;-83
2022/12/05 09:26:23;;;;;;;34.40;23.13;;;;;;;3.41;93.08;99326.14;2253184;78;20903;-82
2022/12/05 09:29:24;;;;;;;36.80;22.57;;;;;;;3.43;93.20;99327.10;2253309;78;21310;-82
2022/12/05 09:32:23;;;;;;;39.07;22.37;;;;;;;3.43;93.00;99325.81;2253930;78;20934;-83
2022/12/05 09:35:26;;;;;;;38.73;23.33;;;;;;;3.48;92.89;99327.83;2252214;78;20898;-82
2022/12/05 09:38:26;;;;;;;34.10;21.57;;;;;;;3.50;92.79;99327.91;2241637;79;20938;-84
2022/12/05 09:44:45;;;;;;;33.60;20.50;;;;;;;3.62;92.59;99327.19;2252531;79;20937;-84
2022/12/05 09:47:46;;;;;;;32.97;20.97;;;;;;;3.70;92.65;99316.81;2253732;78;20906;-83
2022/12/05 09:50:46;;;;;;;34.63;21.60;;;;;;;3.79;92.16;99322.40;2253159;78;20910;-83
2022/12/05 09:53:47;;;;;;;31.40;20.87;;;;;;;3.82;91.81;99321.25;2253700;78;20889;-83
2022/12/05 09:56:47;;;;;;;29.87;20.77;;;;;;;3.87;91.88;99321.86;2253477;78;20911;-85
2022/12/05 09:59:49;;;;;;;61.97;22.47;;;;;;;3.90;91.11;99314.25;2252710;78;21683;-84
2022/12/05 10:02:50;;;;;;;30.47;20.43;;;;;;;3.95;91.38;99311.06;2242149;79;20954;-82
2022/12/05 10:05:50;;;;;;;32.20;21.03;;;;;;;4.04;90.74;99313.18;2252695;78;21247;-83
2022/12/05 10:08:50;;;;;;;32.80;20.70;;;;;;;4.14;91.24;99311.07;2253531;78;20902;-84
2022/12/05 10:11:51;;;;;;;41.30;21.83;;;;;;;4.33;91.17;99312.77;2256838;78;20942;-82
2022/12/05 10:14:51;;;;;;;37.80;20.60;;;;;;;4.52;90.57;99311.01;2274666;78;20947;-84
2022/12/05 10:17:52;;;;;;;31.13;21.43;;;;;;;4.69;90.22;99307.44;2274745;78;20899;-82
2022/12/05 10:20:52;;;;;;;30.70;20.73;;;;;;;4.89;87.62;99302.69;2274532;78;21394;-82
2022/12/05 10:23:52;;;;;;;47.03;22.20;;;;;;;5.02;87.61;99299.78;2275450;78;20938;-82
2022/12/05 10:26:53;;;;;;;29.67;21.07;;;;;;;5.11;88.37;99297.56;2274641;78;20911;-81
2022/12/05 10:29:53;;;;;;;44.60;21.50;;;;;;;5.16;87.43;99289.11;2274800;78;20962;-83
2022/12/05 10:32:54;;;;;;;28.93;20.23;;;;;;;5.20;88.21;99285.44;2274508;78;21637;-81
2022/12/05 10:35:54;;;;;;;25.70;19.87;;;;;;;5.28;87.97;99283.16;2273457;78;20933;-82
2022/12/05 10:38:56;;;;;;;26.33;19.70;;;;;;;5.35;87.29;99282.16;2274080;78;20915;-82
2022/12/05 10:41:55;;;;;;;29.63;20.13;;;;;;;5.34;86.69;99280.81;2274230;78;20879;-82
2022/12/05 10:44:55;;;;;;;27.20;19.23;;;;;;;5.37;86.98;99279.22;2273964;78;20922;-82
2022/12/05 10:47:56;;;;;;;31.83;20.43;;;;;;;5.40;85.74;99275.88;2274314;78;21271;-82
2022/12/05 10:50:56;;;;;;;25.60;18.67;;;;;;;5.38;86.54;99276.22;2273511;78;20950;-83
2022/12/05 10:53:59;;;;;;;26.63;19.47;;;;;;;5.40;85.95;99266.81;2273738;78;20871;-84
2022/12/05 10:57:00;;;;;;;28.97;19.77;;;;;;;5.42;86.01;99268.63;2274458;78;20929;-82
2022/12/05 11:00:00;;;;;;;36.20;19.47;;;;;;;5.40;84.90;99263.81;2273439;78;20966;-83
2022/12/05 11:03:01;;;;;;;24.80;17.87;;;;;;;5.43;86.42;99262.63;2273681;78;20931;-82
2022/12/05 11:06:01;;;;;;;26.87;20.07;;;;;;;5.53;85.51;99256.09;2273944;78;20903;-82
2022/12/05 11:09:01;;;;;;;25.50;18.00;;;;;;;5.51;85.35;99252.56;2274730;78;20910;-81
2022/12/05 11:12:02;;;;;;;28.63;19.80;;;;;;;5.57;85.98;99247.63;2268933;78;21005;-81
2022/12/05 11:15:02;;;;;;;141.40;25.87;;;;;;;5.54;84.87;99241.45;2232000;79;21282;-84
2022/12/05 11:18:03;;;;;;;99.10;24.63;;;;;;;5.56;85.33;99238.09;2231794;79;20914;-82
2022/12/05 11:21:03;;;;;;;31.10;19.43;;;;;;;5.63;85.93;99232.73;2231838;78;20883;-79
2022/12/05 11:24:03;;;;;;;27.17;18.70;;;;;;;5.66;84.89;99231.13;2232873;79;20965;-82
2022/12/05 11:27:04;;;;;;;28.73;20.07;;;;;;;5.72;85.76;99245.61;2233562;79;20953;-83
2022/12/05 11:30:04;;;;;;;29.07;19.13;;;;;;;5.73;84.92;99233.13;2232456;80;21384;-83
2022/12/05 11:33:05;;;;;;;27.63;19.67;;;;;;;5.79;85.51;99235.47;2232218;80;20974;-81
2022/12/05 11:36:05;;;;;;;29.57;21.57;;;;;;;5.83;84.68;99229.16;2232602;79;20928;-81
2022/12/05 11:39:06;;;;;;;25.73;19.97;;;;;;;5.81;83.45;99220.87;2232298;79;21282;-82
2022/12/05 11:42:06;;;;;;;27.27;20.50;;;;;;;5.74;84.22;99219.77;2232283;80;21566;-81
2022/12/05 11:45:07;;;;;;;34.57;19.87;;;;;;;5.69;84.25;99220.00;2232304;80;20906;-81
2022/12/05 11:48:07;;;;;;;27.40;18.93;;;;;;;5.76;85.09;99224.17;2232705;79;20890;-82
2022/12/05 11:51:07;;;;;;;33.73;19.47;;;;;;;5.88;84.88;99224.15;2233697;80;21629;-83
2022/12/05 11:54:08;;;;;;;25.80;18.67;;;;;;;5.97;84.60;99218.03;2233050;79;20950;-81
2022/12/05 11:57:08;;;;;;;27.00;20.07;;;;;;;6.08;84.71;99221.92;2232677;79;20922;-81
2022/12/05 12:00:09;;;;;;;30.47;19.53;;;;;;;6.08;83.95;99221.92;2231938;79;21345;-82
2022/12/05 12:03:09;;;;;;;33.37;19.40;;;;;;;6.11;84.27;99214.26;2232498;79;20928;-81
2022/12/05 12:06:09;;;;;;;35.50;19.00;;;;;;;6.20;84.21;99206.80;2232498;79;21003;-81
2022/12/05 12:09:10;;;;;;;43.27;19.67;;;;;;;6.32;84.18;99213.70;2233044;79;21255;-82
2022/12/05 12:12:10;;;;;;;42.73;19.53;;;;;;;6.42;83.97;99214.90;2233104;78;20934;-84
2022/12/05 12:15:11;;;;;;;227.97;26.73;;;;;;;6.52;83.98;99216.09;2232015;80;20934;-76
2022/12/05 12:18:11;;;;;;;28.60;18.83;;;;;;;6.56;83.32;99211.47;2233060;79;20897;-82
2022/12/05 12:21:11;;;;;;;27.77;18.67;;;;;;;6.58;82.54;99204.62;2233072;79;20906;-82
2022/12/05 12:24:12;;;;;;;24.40;18.60;;;;;;;6.55;82.04;99208.41;2232578;79;20945;-82
2022/12/05 12:27:15;;;;;;;23.73;18.37;;;;;;;6.50;82.92;99204.38;2232411;79;21290;-80
2022/12/05 12:30:13;;;;;;;22.07;18.23;;;;;;;6.54;82.95;99195.86;2231678;79;20981;-82
2022/12/05 12:33:15;;;;;;;28.23;18.33;;;;;;;6.54;82.74;99197.58;2232388;79;20953;-81
2022/12/05 12:36:13;;;;;;;28.00;18.77;;;;;;;6.54;83.11;99193.69;2231841;80;21384;-82
2022/12/05 12:39:14;;;;;;;23.40;16.60;;;;;;;6.57;82.94;99189.89;2232427;79;20887;-82
2022/12/05 12:42:14;;;;;;;28.67;19.70;;;;;;;6.55;82.03;99187.67;2232140;80;21122;-80
2022/12/05 12:45:15;;;;;;;40.00;19.40;;;;;;;6.53;82.60;99186.32;2231609;79;20992;-81
2022/12/05 12:48:15;;;;;;;33.67;20.03;;;;;;;6.52;83.12;99186.27;2232403;80;20878;-81
2022/12/05 12:51:16;;;;;;;31.33;18.93;;;;;;;6.66;85.13;99182.41;2232086;79;21290;-81
2022/12/05 12:54:16;;;;;;;25.43;18.50;;;;;;;6.67;83.23;99189.36;2232597;79;21262;-81
2022/12/05 12:57:19;;;;;;;23.73;17.50;;;;;;;6.56;83.14;99192.91;2232327;79;20973;-82
2022/12/05 13:00:17;;;;;;;23.60;17.10;;;;;;;6.48;82.67;99190.47;2232160;79;20909;-81
2022/12/05 13:03:17;;;;;;;80.10;21.40;;;;;;;6.37;83.14;99183.63;2232313;79;20997;-81
2022/12/05 13:06:18;;;;;;;33.07;19.23;;;;;;;6.31;83.51;99192.91;2232124;79;20910;-82
2022/12/05 13:09:18;;;;;;;29.83;17.93;;;;;;;6.27;83.53;99182.85;2229737;79;21475;-82
2022/12/05 13:12:19;;;;;;;24.67;18.37;;;;;;;6.21;83.97;99186.95;2232862;78;20941;-81
2022/12/05 13:15:19;;;;;;;25.67;17.67;;;;;;;6.15;84.12;99190.21;2275856;78;21148;-82
2022/12/05 13:18:19;;;;;;;29.00;18.47;;;;;;;6.11;83.82;99192.64;2276038;78;20903;-83
2022/12/05 13:21:20;;;;;;;24.93;18.30;;;;;;;6.03;84.51;99197.11;2275651;78;20906;-81
2022/12/05 13:24:20;;;;;;;63.37;19.53;;;;;;;6.00;84.65;99197.41;2275451;78;20969;-81
2022/12/05 13:27:26;;;;;;;29.30;19.80;;;;;;;5.95;84.86;99193.36;2275751;78;20982;-83
2022/12/05 13:30:26;;;;;;;88.13;20.77;;;;;;;5.93;85.16;99188.95;2254808;78;21334;-82
2022/12/05 13:33:24;;;;;;;32.40;18.23;;;;;;;5.85;85.23;99183.88;2276141;78;20911;-81
2022/12/05 13:43:01;;;;;;;23.80;16.57;;;;;;;5.73;85.88;99179.14;2278933;78;20953;-80
2022/12/05 13:46:01;;;;;;;24.33;17.43;;;;;;;5.67;86.15;99166.85;2277709;78;20907;-81
2022/12/05 13:49:02;;;;;;;28.00;17.97;;;;;;;5.66;86.32;99178.45;2278710;78;20926;-81
2022/12/05 13:52:02;;;;;;;25.27;18.10;;;;;;;5.61;86.41;99171.81;2277721;78;20966;-81
2022/12/05 13:55:05;;;;;;;26.77;18.53;;;;;;;5.58;86.63;99170.41;2277595;78;21306;-82
2022/12/05 13:58:03;;;;;;;102.03;20.13;;;;;;;5.59;86.95;99168.28;2277418;78;21678;-81
2022/12/05 14:01:03;;;;;;;35.03;20.00;;;;;;;5.61;86.95;99167.05;2276076;78;20982;-81
2022/12/05 14:04:04;;;;;;;31.03;19.97;;;;;;;5.60;87.14;99163.58;2276170;78;20973;-80
2022/12/05 14:07:04;;;;;;;25.17;17.93;;;;;;;5.59;87.13;99163.11;2276689;78;20919;-82
2022/12/05 14:10:08;;;;;;;39.90;18.77;;;;;;;5.59;87.30;99164.41;2275929;78;20899;-80
2022/12/05 14:13:08;;;;;;;31.87;20.07;;;;;;;5.60;87.45;99162.28;2265733;78;20910;-83
2022/12/05 14:16:08;;;;;;;29.20;19.60;;;;;;;7.05;100.00;99159.89;2232752;78;20902;-82